createdAt,value
2023-05-10T00:00:03.377Z,3.60
2023-05-10T00:03:26.127Z,2.50
2023-05-10T00:06:29.101Z,3.20
2023-05-10T00:09:31.899Z,3.60
2023-05-10T00:12:34.768Z,4.10
2023-05-10T00:15:37.843Z,3.60
2023-05-10T00:18:41.245Z,3.50
2023-05-10T00:21:44.023Z,4.90
2023-05-10T00:24:46.908Z,3.10
2023-05-10T00:27:50.651Z,4.20
2023-05-10T00:30:53.355Z,5.00
2023-05-10T00:33:56.755Z,3.70
2023-05-10T00:36:59.584Z,3.90
2023-05-10T00:40:02.417Z,4.60
2023-05-10T00:43:05.353Z,4.50
2023-05-10T00:46:08.823Z,4.10
2023-05-10T00:49:12.281Z,4.80
2023-05-10T00:52:15.258Z,3.60
2023-05-10T00:55:18.946Z,3.20
2023-05-10T00:58:21.812Z,2.80
2023-05-10T01:01:25.011Z,5.80
2023-05-10T01:04:28.668Z,2.80
2023-05-10T01:07:31.497Z,3.30
2023-05-10T01:10:34.388Z,2.60
2023-05-10T01:13:39.798Z,3.10
2023-05-10T01:16:45.280Z,2.50
2023-05-10T01:19:48.123Z,2.40
2023-05-10T01:23:24.542Z,3.50
2023-05-10T01:26:42.315Z,4.30
2023-05-10T01:30:17.472Z,2.40
2023-05-10T01:33:28.033Z,3.80
2023-05-10T01:36:36.455Z,2.60
2023-05-10T01:39:45.394Z,2.60
2023-05-10T01:42:54.337Z,2.20
2023-05-10T01:46:15.692Z,2.50
2023-05-10T01:49:27.821Z,3.70
2023-05-10T01:55:46.691Z,3.80
2023-05-10T01:58:52.142Z,3.90
2023-05-10T02:01:56.645Z,2.50
2023-05-10T02:05:00.616Z,2.80
2023-05-10T02:08:07.003Z,3.70
2023-05-10T02:11:13.779Z,2.20
2023-05-10T02:14:17.936Z,4.80
2023-05-10T02:17:22.182Z,4.30
2023-05-10T02:20:26.577Z,2.60
2023-05-10T02:23:30.725Z,3.20
2023-05-10T02:26:36.324Z,3.10
2023-05-10T02:29:40.441Z,4.00
2023-05-10T02:32:44.239Z,2.20
2023-05-10T02:35:48.013Z,3.60
2023-05-10T02:38:52.853Z,3.10
2023-05-10T02:41:57.011Z,3.40
2023-05-10T02:45:08.409Z,3.50
2023-05-10T02:48:11.557Z,4.50
2023-05-10T02:51:19.274Z,2.60
2023-05-10T02:54:28.580Z,4.80
2023-05-10T02:57:35.456Z,3.40
2023-05-10T03:00:38.430Z,3.20
2023-05-10T03:03:41.261Z,3.70
2023-05-10T03:10:06.364Z,2.90
2023-05-10T03:13:28.208Z,4.00
2023-05-10T03:16:44.794Z,4.80
2023-05-10T03:20:12.858Z,4.30
2023-05-10T03:23:42.603Z,4.50
2023-05-10T03:26:46.786Z,2.50
2023-05-10T03:29:52.217Z,4.10
2023-05-10T03:32:55.285Z,3.60
2023-05-10T03:35:58.137Z,4.00
2023-05-10T03:39:00.924Z,4.80
2023-05-10T03:42:03.825Z,5.10
2023-05-10T03:45:07.499Z,3.70
2023-05-10T03:48:10.359Z,3.90
2023-05-10T03:51:13.191Z,4.80
2023-05-10T03:54:15.991Z,3.60
2023-05-10T03:57:18.771Z,3.20
2023-05-10T04:00:21.522Z,3.20
2023-05-10T04:03:24.634Z,4.40
2023-05-10T04:06:27.542Z,4.30
2023-05-10T04:09:30.419Z,3.60
2023-05-10T04:12:33.234Z,2.30
2023-05-10T04:15:37.087Z,3.10
2023-05-10T04:18:40.886Z,3.30
2023-05-10T04:21:43.633Z,5.20
2023-05-10T04:24:46.623Z,4.50
2023-05-10T04:27:49.408Z,5.40
2023-05-10T04:30:52.485Z,4.00
2023-05-10T04:33:55.478Z,3.30
2023-05-10T04:36:58.316Z,3.70
2023-05-10T04:40:01.189Z,3.40
2023-05-10T04:43:03.994Z,2.60
2023-05-10T04:46:07.030Z,3.50
2023-05-10T04:49:10.695Z,3.00
2023-05-10T04:52:13.789Z,2.90
2023-05-10T04:55:17.186Z,3.50
2023-05-10T04:58:19.992Z,3.20
2023-05-10T05:01:24.179Z,3.40
2023-05-10T05:04:27.104Z,3.70
2023-05-10T05:07:31.575Z,2.70
2023-05-10T05:10:34.333Z,4.00
2023-05-10T05:13:37.155Z,2.90
2023-05-10T05:16:40.001Z,2.70
2023-05-10T05:19:42.796Z,2.00
2023-05-10T05:22:46.006Z,3.40
2023-05-10T05:25:48.778Z,3.20
2023-05-10T05:28:54.874Z,3.20
2023-05-10T05:31:57.791Z,2.50
2023-05-10T05:35:00.678Z,2.80
2023-05-10T05:38:03.518Z,2.30
2023-05-10T05:41:06.364Z,3.40
2023-05-10T05:44:09.275Z,2.90
2023-05-10T05:47:12.169Z,2.80
2023-05-10T05:50:14.928Z,2.20
2023-05-10T05:53:17.693Z,2.90
2023-05-10T05:56:25.444Z,2.70
2023-05-10T05:59:28.974Z,3.40
2023-05-10T06:02:31.908Z,2.60
2023-05-10T06:05:34.772Z,2.60
2023-05-10T06:08:37.549Z,3.10
2023-05-10T06:11:40.345Z,2.80
2023-05-10T06:14:43.126Z,3.30
2023-05-10T06:17:45.911Z,2.60
2023-05-10T06:20:48.706Z,2.90
2023-05-10T06:23:51.528Z,2.70
2023-05-10T06:26:54.338Z,3.40
2023-05-10T06:30:09.161Z,2.60
2023-05-10T06:33:17.048Z,3.80
2023-05-10T06:36:19.934Z,2.70
2023-05-10T06:39:22.703Z,3.20
2023-05-10T06:42:26.589Z,2.70
2023-05-10T06:45:29.364Z,3.10
2023-05-10T06:48:32.169Z,5.90
2023-05-10T06:51:34.970Z,3.80
2023-05-10T06:54:37.782Z,3.00
2023-05-10T06:57:40.569Z,2.30
2023-05-10T07:00:44.929Z,3.50
2023-05-10T07:03:47.769Z,5.30
2023-05-10T07:06:50.810Z,2.20
2023-05-10T07:09:53.629Z,3.40
2023-05-10T07:12:56.611Z,2.20
2023-05-10T07:16:00.787Z,2.70
2023-05-10T07:19:03.725Z,2.70
2023-05-10T07:22:06.572Z,2.50
2023-05-10T07:25:09.748Z,2.70
2023-05-10T07:28:12.606Z,2.50
2023-05-10T07:31:15.407Z,2.60
2023-05-10T07:34:18.171Z,2.80
2023-05-10T07:37:21.093Z,2.50
2023-05-10T07:40:23.943Z,2.40
2023-05-10T07:43:26.735Z,2.10
2023-05-10T07:46:29.660Z,2.90
2023-05-10T07:49:32.521Z,4.80
2023-05-10T07:52:35.368Z,2.50
2023-05-10T07:55:38.136Z,3.40
2023-05-10T07:58:40.855Z,3.30
2023-05-10T08:01:45.055Z,2.50
2023-05-10T08:04:48.075Z,2.60
2023-05-10T08:07:51.330Z,3.20
2023-05-10T08:10:55.402Z,3.10
2023-05-10T08:13:59.720Z,1.60
2023-05-10T08:17:03.109Z,2.80
2023-05-10T08:20:24.890Z,2.50
2023-05-10T08:23:28.847Z,3.00
2023-05-10T08:26:32.502Z,2.40
2023-05-10T08:29:48.928Z,1.90
2023-05-10T08:32:55.961Z,2.90
2023-05-10T08:35:59.382Z,2.80
2023-05-10T08:39:23.017Z,3.40
2023-05-10T08:42:39.095Z,3.00
2023-05-10T08:45:54.101Z,2.30
2023-05-10T08:49:00.167Z,2.90
2023-05-10T08:52:06.595Z,2.30
2023-05-10T08:55:12.765Z,3.20
2023-05-10T08:58:23.160Z,2.70
2023-05-10T09:01:29.091Z,2.80
2023-05-10T09:04:37.491Z,2.10
2023-05-10T09:07:41.072Z,3.30
2023-05-10T09:10:48.910Z,3.20
2023-05-10T09:13:57.940Z,2.20
2023-05-10T09:17:09.028Z,2.10
2023-05-10T09:23:20.018Z,2.30
2023-05-10T09:26:25.939Z,2.20
2023-05-10T09:29:43.883Z,2.30
2023-05-10T09:32:49.411Z,3.10
2023-05-10T09:35:53.952Z,3.00
2023-05-10T09:38:57.627Z,2.60
2023-05-10T09:42:08.257Z,3.40
2023-05-10T09:45:11.273Z,2.20
2023-05-10T09:48:22.880Z,2.00
2023-05-10T09:51:28.411Z,2.80
2023-05-10T09:54:32.785Z,2.10
2023-05-10T09:57:36.064Z,2.10
2023-05-10T10:00:53.426Z,2.70
2023-05-10T10:03:59.038Z,3.00
2023-05-10T10:07:03.894Z,2.20
2023-05-10T10:10:12.675Z,2.80
2023-05-10T10:13:16.572Z,1.80
2023-05-10T10:16:21.034Z,2.20
2023-05-10T10:19:25.905Z,1.90
2023-05-10T10:25:33.440Z,1.70
2023-05-10T10:28:53.903Z,2.30
2023-05-10T10:32:35.900Z,2.00
2023-05-10T10:35:41.518Z,3.30
2023-05-10T10:38:47.233Z,2.10
2023-05-10T10:42:01.948Z,2.10
2023-05-10T10:45:18.778Z,2.20
2023-05-10T10:48:26.038Z,3.20
2023-05-10T10:51:32.457Z,3.20
2023-05-10T10:54:36.415Z,5.30
2023-05-10T10:57:46.310Z,5.00
2023-05-10T11:00:50.462Z,3.40
2023-05-10T11:04:00.139Z,5.20
2023-05-10T11:07:19.090Z,4.90
2023-05-10T11:10:23.110Z,4.30
2023-05-10T11:13:52.638Z,5.30
2023-05-10T11:16:55.569Z,3.30
2023-05-10T11:20:10.531Z,4.10
2023-05-10T11:23:16.972Z,4.20
2023-05-10T11:26:20.020Z,3.80
2023-05-10T11:29:23.725Z,5.50
2023-05-10T11:32:27.892Z,4.70
2023-05-10T11:35:32.095Z,4.10
2023-05-10T11:38:34.951Z,3.80
2023-05-10T11:41:38.334Z,3.30
2023-05-10T11:44:44.073Z,3.60
2023-05-10T11:47:51.397Z,8.10
2023-05-10T11:50:58.991Z,2.90
2023-05-10T11:54:01.869Z,4.10
2023-05-10T11:57:05.216Z,3.60
2023-05-10T12:00:09.232Z,3.60
2023-05-10T12:03:12.424Z,2.70
2023-05-10T12:06:17.257Z,3.80
2023-05-10T12:09:35.537Z,2.10
2023-05-10T12:12:51.401Z,3.70
2023-05-10T12:16:15.129Z,3.10
2023-05-10T12:19:22.730Z,4.30
2023-05-10T12:22:26.075Z,3.50
2023-05-10T12:25:34.654Z,4.00
2023-05-10T12:28:39.433Z,4.20
2023-05-10T12:31:57.732Z,4.60
2023-05-10T12:35:01.133Z,4.10
2023-05-10T12:38:27.448Z,2.80
2023-05-10T12:41:31.137Z,2.90
2023-05-10T12:44:34.112Z,2.80
2023-05-10T12:47:37.773Z,1.70
2023-05-10T12:50:41.123Z,2.70
2023-05-10T12:53:49.251Z,2.60
2023-05-10T12:56:54.837Z,2.20
2023-05-10T13:03:25.980Z,4.80
2023-05-10T13:06:29.459Z,1.50
2023-05-10T13:09:33.700Z,1.40
2023-05-10T13:12:39.502Z,1.30
2023-05-10T13:15:43.751Z,1.90
2023-05-10T13:18:47.446Z,2.90
2023-05-10T13:21:51.935Z,1.60
2023-05-10T13:24:55.314Z,1.30
2023-05-10T13:27:58.177Z,1.80
2023-05-10T13:31:01.709Z,1.40
2023-05-10T13:34:04.869Z,1.50
2023-05-10T13:37:08.324Z,1.50
2023-05-10T13:40:16.930Z,1.30
2023-05-10T13:43:21.034Z,1.70
2023-05-10T13:46:24.405Z,2.00
2023-05-10T13:49:27.872Z,2.00
2023-05-10T13:52:31.768Z,1.70
2023-05-10T13:55:35.789Z,1.50
2023-05-10T13:58:39.358Z,2.70
2023-05-10T14:01:43.918Z,1.90
2023-05-10T14:04:47.581Z,2.90
2023-05-10T14:07:52.461Z,1.60
2023-05-10T14:10:58.234Z,2.40
2023-05-10T14:14:02.765Z,1.50
2023-05-10T14:17:13.068Z,1.30
2023-05-10T14:20:16.535Z,2.20
2023-05-10T14:23:21.317Z,1.80
2023-05-10T14:26:24.388Z,1.50
2023-05-10T14:29:27.269Z,1.90
2023-05-10T14:32:31.107Z,1.70
2023-05-10T14:35:34.085Z,1.70
2023-05-10T14:38:37.986Z,3.30
2023-05-10T14:41:43.973Z,1.80
2023-05-10T14:44:47.753Z,1.70
2023-05-10T14:47:51.796Z,2.20
2023-05-10T14:50:55.524Z,1.40
2023-05-10T14:53:58.712Z,2.70
2023-05-10T14:57:04.691Z,2.50
2023-05-10T15:00:19.144Z,1.80
2023-05-10T15:03:27.391Z,2.50
2023-05-10T15:06:43.081Z,1.80
2023-05-10T15:09:48.588Z,1.50
2023-05-10T15:12:56.245Z,1.60
2023-05-10T15:16:05.286Z,1.60
2023-05-10T15:19:09.466Z,2.00
2023-05-10T15:22:17.841Z,3.30
2023-05-10T15:25:24.228Z,2.10
2023-05-10T15:28:28.592Z,1.60
2023-05-10T15:31:32.859Z,2.20
2023-05-10T15:35:00.873Z,3.60
2023-05-10T15:38:05.291Z,2.00
2023-05-10T15:41:10.717Z,2.40
2023-05-10T15:44:14.584Z,4.30
2023-05-10T15:47:18.505Z,4.30
2023-05-10T15:50:22.199Z,3.50
2023-05-10T15:53:27.989Z,3.40
2023-05-10T15:56:38.470Z,4.30
2023-05-10T16:02:55.241Z,3.40
2023-05-10T16:06:01.067Z,4.50
2023-05-10T16:09:04.802Z,6.40
2023-05-10T16:12:12.743Z,6.10
2023-05-10T16:15:36.488Z,6.10
2023-05-10T16:18:40.317Z,7.30
2023-05-10T16:21:47.999Z,5.00
2023-05-10T16:24:53.654Z,4.90
2023-05-10T16:28:04.567Z,4.80
2023-05-10T16:31:13.004Z,4.30
2023-05-10T16:34:25.462Z,3.60
2023-05-10T16:37:28.976Z,4.10
2023-05-10T16:40:36.052Z,4.00
2023-05-10T16:43:41.747Z,4.20
2023-05-10T16:46:46.306Z,5.00
2023-05-10T16:49:54.402Z,5.40
2023-05-10T16:52:58.567Z,4.90
2023-05-10T16:56:28.825Z,6.20
2023-05-10T16:59:34.405Z,3.20
2023-05-10T17:02:50.465Z,2.90
2023-05-10T17:05:54.014Z,2.60
2023-05-10T17:08:58.701Z,5.20
2023-05-10T17:12:03.490Z,3.30
2023-05-10T17:15:13.278Z,4.60
2023-05-10T17:18:18.815Z,5.20
2023-05-10T17:21:24.120Z,4.20
2023-05-10T17:24:29.858Z,4.90
2023-05-10T17:30:45.273Z,4.10
2023-05-10T17:33:49.700Z,3.30
2023-05-10T17:36:56.147Z,3.60
2023-05-10T17:40:00.717Z,2.80
2023-05-10T17:43:06.485Z,6.20
2023-05-10T17:46:19.155Z,3.50
2023-05-10T17:49:24.060Z,4.50
2023-05-10T17:52:32.092Z,3.80
2023-05-10T17:55:45.621Z,3.40
2023-05-10T17:58:51.399Z,2.10
2023-05-10T18:02:17.035Z,2.60
2023-05-10T18:05:23.055Z,3.40
2023-05-10T18:08:29.950Z,3.00
2023-05-10T18:11:55.896Z,3.80
2023-05-10T18:15:14.613Z,5.20
2023-05-10T18:18:25.457Z,4.20
2023-05-10T18:21:39.126Z,3.50
2023-05-10T18:24:47.120Z,3.40
2023-05-10T18:27:54.129Z,4.40
2023-05-10T18:31:01.235Z,4.70
2023-05-10T18:34:06.444Z,4.90
2023-05-10T18:37:25.895Z,4.20
2023-05-10T18:40:41.631Z,4.40
2023-05-10T18:44:32.067Z,4.60
2023-05-10T18:47:46.446Z,5.10
2023-05-10T18:50:51.044Z,4.80
2023-05-10T18:54:07.642Z,4.30
2023-05-10T18:57:16.462Z,4.90
2023-05-10T19:00:24.459Z,5.30
2023-05-10T19:03:32.036Z,4.40
2023-05-10T19:06:38.504Z,11.50
2023-05-10T19:09:41.690Z,17.20
2023-05-10T19:12:45.195Z,11.00
2023-05-10T19:16:06.197Z,5.30
2023-05-10T19:19:17.519Z,5.70
2023-05-10T19:22:32.072Z,5.40
2023-05-10T19:25:44.677Z,7.90
2023-05-10T19:28:51.382Z,7.20
2023-05-10T19:31:58.433Z,6.20
2023-05-10T19:35:10.942Z,11.00
2023-05-10T19:41:51.292Z,10.90
2023-05-10T19:45:12.194Z,6.80
2023-05-10T19:48:23.600Z,7.10
2023-05-10T19:51:34.683Z,8.50
2023-05-10T19:54:47.124Z,7.20
2023-05-10T19:58:10.531Z,5.60
2023-05-10T20:01:33.908Z,7.60
2023-05-10T20:04:58.829Z,4.90
2023-05-10T20:08:17.203Z,4.20
2023-05-10T20:11:29.210Z,4.10
2023-05-10T20:14:43.237Z,4.80
2023-05-10T20:18:19.044Z,3.60
2023-05-10T20:22:06.497Z,4.80
2023-05-10T20:25:18.689Z,4.30
2023-05-10T20:28:23.545Z,4.80
2023-05-10T20:31:26.578Z,4.70
2023-05-10T20:34:32.280Z,4.00
2023-05-10T20:37:35.236Z,4.00
2023-05-10T20:40:39.123Z,3.50
2023-05-10T20:43:42.312Z,4.70
2023-05-10T20:46:45.290Z,4.00
2023-05-10T20:49:48.115Z,4.00
2023-05-10T20:52:53.810Z,5.00
2023-05-10T20:55:56.766Z,5.00
2023-05-10T20:58:59.593Z,4.70
2023-05-10T21:02:02.457Z,4.70
2023-05-10T21:05:06.064Z,5.10
2023-05-10T21:08:08.970Z,4.10
2023-05-10T21:11:11.909Z,4.10
2023-05-10T21:14:14.702Z,4.10
2023-05-10T21:17:19.914Z,3.50
2023-05-10T21:20:23.893Z,4.40
2023-05-10T21:23:26.835Z,3.80
2023-05-10T21:26:29.814Z,3.90
2023-05-10T21:29:32.622Z,4.50
2023-05-10T21:32:36.924Z,3.20
2023-05-10T21:35:42.918Z,3.10
2023-05-10T21:38:46.714Z,6.50
2023-05-10T21:41:49.514Z,5.50
2023-05-10T21:44:52.681Z,4.70
2023-05-10T21:47:55.805Z,3.60
2023-05-10T21:50:59.363Z,4.80
2023-05-10T21:54:02.209Z,4.20
2023-05-10T21:57:05.182Z,5.00
2023-05-10T22:00:10.395Z,5.10
2023-05-10T22:03:13.512Z,4.00
2023-05-10T22:06:16.581Z,4.90
2023-05-10T22:09:19.596Z,8.60
2023-05-10T22:12:22.538Z,3.60
2023-05-10T22:15:25.595Z,4.50
2023-05-10T22:18:28.924Z,4.00
2023-05-10T22:21:32.817Z,3.00
2023-05-10T22:24:36.909Z,4.20
2023-05-10T22:27:40.756Z,4.50
2023-05-10T22:30:43.954Z,3.60
2023-05-10T22:33:47.030Z,4.80
2023-05-10T22:36:50.583Z,4.20
2023-05-10T22:39:53.745Z,4.10
2023-05-10T22:42:56.652Z,4.80
2023-05-10T22:45:59.637Z,5.30
2023-05-10T22:49:02.713Z,4.60
2023-05-10T22:52:05.578Z,5.20
2023-05-10T22:55:09.618Z,4.50
2023-05-10T22:58:12.810Z,3.40
2023-05-10T23:01:15.957Z,3.10
2023-05-10T23:04:18.899Z,4.50
2023-05-10T23:07:21.777Z,5.00
2023-05-10T23:10:24.637Z,5.40
2023-05-10T23:13:27.681Z,5.00
2023-05-10T23:16:30.743Z,5.30
2023-05-10T23:19:33.790Z,4.10
2023-05-10T23:22:37.509Z,5.20
2023-05-10T23:25:40.677Z,5.10
2023-05-10T23:28:43.790Z,4.60
2023-05-10T23:31:50.733Z,4.20
2023-05-10T23:34:53.889Z,3.80
2023-05-10T23:37:56.852Z,4.20
2023-05-10T23:40:59.669Z,4.10
2023-05-10T23:44:02.737Z,4.50
2023-05-10T23:47:06.116Z,4.20
2023-05-10T23:50:09.706Z,3.20
2023-05-10T23:53:12.702Z,3.80
2023-05-10T23:56:15.737Z,3.80
2023-05-10T23:59:18.740Z,4.00
